createdAt,value
2018-08-23T00:00:42.416Z,12.80
2018-08-23T00:03:15.828Z,12.80
2018-08-23T00:05:55.743Z,12.70
2018-08-23T00:08:23.688Z,12.80
2018-08-23T00:10:51.791Z,12.70
2018-08-23T00:13:19.772Z,12.60
2018-08-23T00:15:47.201Z,12.50
2018-08-23T00:18:14.648Z,12.50
2018-08-23T00:20:42.051Z,12.60
2018-08-23T00:23:09.498Z,12.50
2018-08-23T00:25:37.700Z,12.40
2018-08-23T00:28:05.512Z,12.40
2018-08-23T00:30:33.281Z,12.40
2018-08-23T00:33:01.923Z,12.30
2018-08-23T00:35:31.638Z,12.30
2018-08-23T00:37:59.275Z,12.30
2018-08-23T00:40:26.745Z,12.30
2018-08-23T00:43:00.320Z,12.40
2018-08-23T00:45:27.784Z,12.40
2018-08-23T00:47:55.185Z,12.40
2018-08-23T00:50:58.715Z,12.40
2018-08-23T00:53:26.804Z,12.50
2018-08-23T00:56:12.682Z,12.60
2018-08-23T00:58:42.055Z,12.60
2018-08-23T01:01:12.160Z,12.60
2018-08-23T01:03:39.563Z,12.60
2018-08-23T01:06:07.074Z,12.60
2018-08-23T01:08:34.999Z,12.70
2018-08-23T01:11:03.898Z,12.70
2018-08-23T01:13:31.316Z,12.60
2018-08-23T01:15:58.766Z,12.50
2018-08-23T01:18:26.173Z,12.40
2018-08-23T01:20:53.608Z,12.30
2018-08-23T01:23:21.437Z,12.30
2018-08-23T01:25:49.424Z,12.20
2018-08-23T01:28:16.828Z,12.20
2018-08-23T01:30:45.033Z,12.20
2018-08-23T01:33:15.600Z,12.20
2018-08-23T01:35:44.260Z,12.20
2018-08-23T01:38:12.338Z,12.30
2018-08-23T01:40:40.645Z,12.30
2018-08-23T01:43:08.118Z,12.30
2018-08-23T01:45:35.644Z,12.30
2018-08-23T01:48:05.130Z,12.30
2018-08-23T01:50:32.592Z,12.30
2018-08-23T01:53:00.000Z,12.30
2018-08-23T01:55:27.418Z,12.40
2018-08-23T01:57:55.153Z,12.30
2018-08-23T02:00:33.768Z,12.20
2018-08-23T02:03:02.011Z,12.20
2018-08-23T02:05:29.455Z,12.10
2018-08-23T02:07:56.939Z,12.10
2018-08-23T02:10:24.347Z,12.00
2018-08-23T02:12:52.964Z,12.00
2018-08-23T02:15:20.673Z,12.00
2018-08-23T02:17:53.713Z,12.10
2018-08-23T02:20:22.070Z,12.10
2018-08-23T02:22:49.526Z,12.10
2018-08-23T02:25:16.935Z,12.20
2018-08-23T02:28:00.483Z,12.20
2018-08-23T02:30:45.754Z,12.20
2018-08-23T02:33:13.898Z,12.30
2018-08-23T02:36:15.594Z,12.40
2018-08-23T02:38:43.928Z,12.50
2018-08-23T02:41:11.350Z,12.50
2018-08-23T02:43:38.725Z,12.50
2018-08-23T02:46:06.170Z,12.50
2018-08-23T02:48:33.606Z,12.50
2018-08-23T02:51:01.027Z,12.50
2018-08-23T02:53:42.527Z,12.50
2018-08-23T02:56:12.092Z,12.50
2018-08-23T02:58:46.404Z,12.40
2018-08-23T03:01:13.825Z,12.30
2018-08-23T03:03:53.992Z,12.30
2018-08-23T03:06:27.696Z,12.30
2018-08-23T03:08:55.092Z,12.20
2018-08-23T03:11:22.547Z,12.10
2018-08-23T03:13:49.987Z,12.10
2018-08-23T03:16:17.373Z,12.00
2018-08-23T03:18:44.761Z,11.90
2018-08-23T03:21:12.266Z,11.80
2018-08-23T03:23:40.880Z,11.80
2018-08-23T03:26:08.284Z,11.80
2018-08-23T03:28:36.025Z,11.70
2018-08-23T03:31:03.814Z,11.70
2018-08-23T03:33:32.793Z,11.60
2018-08-23T03:36:00.281Z,11.50
2018-08-23T03:38:27.729Z,11.50
2018-08-23T03:40:55.274Z,11.40
2018-08-23T03:43:22.674Z,11.40
2018-08-23T03:45:50.065Z,11.40
2018-08-23T03:48:17.548Z,11.40
2018-08-23T03:50:50.797Z,11.30
2018-08-23T03:53:18.276Z,11.30
2018-08-23T03:56:21.532Z,11.20
2018-08-23T03:58:48.957Z,11.20
2018-08-23T04:01:16.363Z,11.10
2018-08-23T04:03:43.840Z,11.00
2018-08-23T04:06:34.528Z,11.00
2018-08-23T04:09:02.072Z,11.00
2018-08-23T04:11:29.517Z,11.20
2018-08-23T04:13:56.904Z,11.20
2018-08-23T04:16:25.514Z,11.20
2018-08-23T04:18:53.345Z,11.20
2018-08-23T04:21:20.772Z,11.20
2018-08-23T04:23:48.163Z,11.20
2018-08-23T04:26:15.926Z,11.20
2018-08-23T04:28:43.362Z,11.30
2018-08-23T04:31:10.856Z,11.40
2018-08-23T04:33:38.260Z,11.40
2018-08-23T04:36:07.635Z,11.60
2018-08-23T04:38:40.205Z,11.70
2018-08-23T04:41:12.174Z,11.90
2018-08-23T04:43:39.609Z,12.20
2018-08-23T04:46:11.602Z,12.50
2018-08-23T04:48:39.029Z,12.80
2018-08-23T04:51:06.481Z,13.20
2018-08-23T04:53:33.878Z,13.70
2018-08-23T04:56:01.270Z,14.30
2018-08-23T04:58:28.685Z,14.70
2018-08-23T05:00:56.146Z,15.20
2018-08-23T05:03:23.622Z,15.40
2018-08-23T05:05:51.021Z,15.60
2018-08-23T05:08:18.417Z,15.90
2018-08-23T05:10:45.821Z,16.20
2018-08-23T05:13:13.200Z,16.30
2018-08-23T05:15:40.623Z,16.60
2018-08-23T05:18:08.006Z,16.90
2018-08-23T05:20:35.473Z,17.20
2018-08-23T05:23:02.867Z,17.50
2018-08-23T05:25:30.309Z,17.90
2018-08-23T05:28:16.508Z,18.40
2018-08-23T05:30:44.840Z,18.80
2018-08-23T05:33:14.317Z,19.30
2018-08-23T05:35:41.813Z,19.50
2018-08-23T05:38:10.007Z,19.60
2018-08-23T05:40:43.321Z,19.60
2018-08-23T05:43:10.949Z,19.80
2018-08-23T05:45:44.137Z,20.40
2018-08-23T05:48:18.740Z,20.00
2018-08-23T05:50:46.210Z,19.30
2018-08-23T05:53:15.528Z,19.50
2018-08-23T05:55:43.213Z,19.70
2018-08-23T05:58:15.389Z,20.00
2018-08-23T06:00:42.993Z,20.30
2018-08-23T06:03:10.545Z,19.80
2018-08-23T06:05:37.952Z,19.20
2018-08-23T06:08:05.364Z,19.40
2018-08-23T06:10:32.800Z,20.10
2018-08-23T06:13:00.204Z,21.00
2018-08-23T06:15:27.589Z,21.40
2018-08-23T06:17:55.006Z,22.10
2018-08-23T06:20:22.414Z,22.20
2018-08-23T06:22:49.860Z,22.30
2018-08-23T06:25:17.301Z,21.60
2018-08-23T06:27:44.702Z,21.10
2018-08-23T06:30:12.085Z,20.80
2018-08-23T06:32:39.629Z,20.50
2018-08-23T06:35:07.005Z,20.00
2018-08-23T06:37:35.424Z,19.90
2018-08-23T06:40:02.905Z,19.70
2018-08-23T06:42:44.972Z,19.40
2018-08-23T06:45:12.359Z,19.40
2018-08-23T06:47:41.341Z,19.30
2018-08-23T06:50:08.812Z,19.40
2018-08-23T06:52:41.776Z,19.40
2018-08-23T06:55:13.735Z,19.70
2018-08-23T06:57:47.998Z,19.90
2018-08-23T07:00:21.201Z,20.30
2018-08-23T07:02:49.174Z,20.20
2018-08-23T07:05:17.001Z,20.20
2018-08-23T07:07:44.443Z,20.50
2018-08-23T07:10:12.275Z,20.80
2018-08-23T07:12:39.837Z,20.80
2018-08-23T07:15:07.301Z,21.10
2018-08-23T07:17:34.808Z,20.90
2018-08-23T07:20:03.314Z,21.10
2018-08-23T07:22:33.050Z,21.30
2018-08-23T07:25:00.531Z,21.50
2018-08-23T07:27:28.016Z,21.40
2018-08-23T07:29:56.737Z,21.10
2018-08-23T07:32:26.098Z,21.10
2018-08-23T07:35:00.099Z,21.20
2018-08-23T07:37:27.708Z,21.00
2018-08-23T07:40:00.889Z,20.80
2018-08-23T07:42:29.419Z,20.80
2018-08-23T07:44:57.352Z,20.70
2018-08-23T07:47:24.877Z,20.80
2018-08-23T07:49:53.609Z,20.90
2018-08-23T07:52:21.194Z,20.80
2018-08-23T07:54:48.591Z,20.90
2018-08-23T07:57:15.998Z,20.80
2018-08-23T07:59:43.437Z,20.90
2018-08-23T08:02:12.281Z,21.20
2018-08-23T08:04:39.661Z,21.20
2018-08-23T08:07:10.062Z,20.90
2018-08-23T08:09:37.474Z,21.00
2018-08-23T08:12:04.953Z,21.00
2018-08-23T08:14:34.846Z,21.20
2018-08-23T08:17:15.017Z,21.30
2018-08-23T08:20:02.415Z,21.60
2018-08-23T08:22:30.017Z,21.70
2018-08-23T08:25:19.767Z,21.90
2018-08-23T08:27:48.424Z,21.80
2018-08-23T08:30:18.449Z,21.60
2018-08-23T08:32:45.866Z,21.80
2018-08-23T08:35:17.249Z,22.00
2018-08-23T08:37:45.905Z,22.20
2018-08-23T08:40:14.651Z,22.30
2018-08-23T08:42:42.469Z,22.50
2018-08-23T08:45:11.674Z,22.50
2018-08-23T08:47:40.316Z,22.60
2018-08-23T08:50:07.780Z,22.70
2018-08-23T08:52:35.260Z,22.80
2018-08-23T08:55:03.353Z,22.80
2018-08-23T08:57:31.342Z,22.80
2018-08-23T08:59:58.982Z,23.00
2018-08-23T09:02:27.761Z,23.00
2018-08-23T09:04:55.318Z,23.10
2018-08-23T09:07:26.353Z,23.20
2018-08-23T09:09:53.928Z,23.10
2018-08-23T09:12:21.269Z,23.00
2018-08-23T09:14:48.661Z,23.20
2018-08-23T09:17:33.555Z,23.30
2018-08-23T09:20:04.135Z,23.40
2018-08-23T09:22:41.719Z,23.60
2018-08-23T09:25:16.068Z,23.70
2018-08-23T09:27:43.968Z,23.70
2018-08-23T09:30:17.198Z,23.70
2018-08-23T09:32:44.645Z,23.60
2018-08-23T09:35:12.111Z,23.80
2018-08-23T09:37:40.079Z,23.80
2018-08-23T09:40:08.082Z,23.90
2018-08-23T09:42:36.285Z,23.90
2018-08-23T09:45:11.963Z,23.90
2018-08-23T09:47:39.381Z,23.90
2018-08-23T09:50:07.497Z,24.00
2018-08-23T09:52:38.033Z,24.10
2018-08-23T09:55:05.917Z,24.00
2018-08-23T09:57:34.827Z,24.00
2018-08-23T10:00:02.365Z,24.00
2018-08-23T10:03:33.386Z,24.10
2018-08-23T10:06:05.844Z,24.30
2018-08-23T10:08:39.173Z,24.50
2018-08-23T10:12:14.670Z,24.50
2018-08-23T10:14:47.812Z,24.50
2018-08-23T10:17:20.981Z,24.60
2018-08-23T10:19:54.141Z,24.90
2018-08-23T10:22:27.244Z,25.00
2018-08-23T10:24:54.701Z,25.00
2018-08-23T10:27:22.143Z,25.10
2018-08-23T10:29:49.521Z,25.10
2018-08-23T10:32:17.128Z,25.00
2018-08-23T10:34:44.396Z,25.10
2018-08-23T10:37:11.830Z,25.10
2018-08-23T10:39:39.697Z,25.20
2018-08-23T10:42:11.706Z,25.30
2018-08-23T10:44:39.197Z,25.40
2018-08-23T10:47:06.542Z,25.40
2018-08-23T10:49:33.970Z,25.50
2018-08-23T10:52:01.389Z,25.50
2018-08-23T10:54:28.788Z,25.50
2018-08-23T10:56:56.214Z,25.50
2018-08-23T10:59:23.661Z,25.60
2018-08-23T11:01:51.045Z,25.60
2018-08-23T11:04:18.502Z,25.60
2018-08-23T11:06:51.496Z,25.60
2018-08-23T11:09:24.670Z,25.60
2018-08-23T11:11:52.078Z,25.70
2018-08-23T11:14:25.214Z,25.70
2018-08-23T11:16:58.418Z,25.70
2018-08-23T11:19:31.496Z,25.70
2018-08-23T11:21:58.885Z,26.00
2018-08-23T11:24:26.354Z,26.10
2018-08-23T11:26:53.792Z,26.20
2018-08-23T11:29:22.183Z,26.30
2018-08-23T11:31:50.034Z,26.50
2018-08-23T11:34:17.469Z,26.60
2018-08-23T11:36:44.912Z,26.70
2018-08-23T11:39:12.320Z,26.90
2018-08-23T11:41:39.944Z,27.10
2018-08-23T11:44:07.369Z,26.90
2018-08-23T11:46:34.776Z,27.00
2018-08-23T11:49:02.189Z,26.90
2018-08-23T11:51:29.588Z,26.80
2018-08-23T11:53:57.067Z,26.70
2018-08-23T11:56:24.458Z,26.50
2018-08-23T11:58:51.832Z,26.40
2018-08-23T12:01:19.262Z,26.30
2018-08-23T12:03:46.704Z,26.00
2018-08-23T12:06:15.296Z,25.90
2018-08-23T12:08:43.108Z,25.90
2018-08-23T12:11:10.706Z,25.80
2018-08-23T12:13:38.239Z,25.80
2018-08-23T12:16:06.920Z,25.90
2018-08-23T12:18:35.693Z,26.00
2018-08-23T12:21:03.435Z,26.10
2018-08-23T12:23:30.899Z,26.10
2018-08-23T12:25:58.513Z,26.10
2018-08-23T12:28:31.653Z,26.20
2018-08-23T12:30:59.070Z,26.60
2018-08-23T12:33:26.887Z,26.80
2018-08-23T12:35:54.289Z,27.00
2018-08-23T12:38:27.393Z,27.10
2018-08-23T12:41:00.594Z,27.00
2018-08-23T12:43:33.715Z,26.90
2018-08-23T12:46:03.031Z,26.80
2018-08-23T12:48:30.455Z,26.60
2018-08-23T12:50:58.057Z,26.70
2018-08-23T12:53:27.394Z,26.70
2018-08-23T12:55:54.941Z,26.60
2018-08-23T12:58:22.349Z,26.60
2018-08-23T13:00:49.755Z,26.80
2018-08-23T13:03:17.166Z,26.80
2018-08-23T13:05:44.604Z,27.00
2018-08-23T13:08:12.055Z,27.00
2018-08-23T13:10:39.406Z,27.00
2018-08-23T13:13:06.835Z,27.20
2018-08-23T13:15:35.069Z,27.00
2018-08-23T13:18:03.204Z,27.10
2018-08-23T13:20:30.605Z,27.40
2018-08-23T13:22:58.016Z,27.70
2018-08-23T13:25:25.532Z,27.70
2018-08-23T13:27:52.941Z,27.60
2018-08-23T13:30:20.413Z,27.30
2018-08-23T13:32:47.821Z,27.30
2018-08-23T13:35:15.257Z,27.40
2018-08-23T13:37:42.674Z,27.40
2018-08-23T13:40:15.679Z,27.30
2018-08-23T13:42:43.275Z,27.30
2018-08-23T13:45:10.766Z,27.20
2018-08-23T13:47:38.282Z,27.30
2018-08-23T13:50:05.788Z,27.50
2018-08-23T13:52:33.264Z,27.60
2018-08-23T13:55:00.644Z,27.70
2018-08-23T13:57:28.144Z,27.70
2018-08-23T13:59:55.545Z,27.50
2018-08-23T14:02:23.041Z,27.60
2018-08-23T14:04:50.442Z,27.40
2018-08-23T14:07:17.896Z,27.20
2018-08-23T14:09:45.353Z,27.20
2018-08-23T14:12:12.767Z,27.30
2018-08-23T14:14:40.159Z,27.50
2018-08-23T14:17:07.600Z,27.60
2018-08-23T14:19:34.985Z,27.40
2018-08-23T14:22:02.408Z,27.10
2018-08-23T14:24:29.960Z,26.90
2018-08-23T14:26:57.404Z,26.70
2018-08-23T14:29:24.864Z,26.70
2018-08-23T14:31:52.234Z,26.70
2018-08-23T14:34:19.851Z,26.80
2018-08-23T14:36:47.261Z,27.10
2018-08-23T14:39:14.635Z,26.90
2018-08-23T14:41:42.070Z,26.80
2018-08-23T14:44:09.525Z,27.00
2018-08-23T14:46:42.803Z,27.00
2018-08-23T14:49:14.713Z,26.80
2018-08-23T14:51:42.212Z,26.70
2018-08-23T14:54:15.441Z,26.60
2018-08-23T14:56:48.633Z,26.60
2018-08-23T14:59:16.066Z,26.70
2018-08-23T15:01:43.461Z,26.60
2018-08-23T15:04:10.876Z,26.60
2018-08-23T15:06:38.253Z,26.90
2018-08-23T15:09:06.883Z,27.20
2018-08-23T15:11:34.294Z,27.30
2018-08-23T15:14:01.831Z,27.00
2018-08-23T15:16:29.309Z,26.80
2018-08-23T15:18:56.688Z,26.90
2018-08-23T15:21:24.069Z,26.80
2018-08-23T15:23:51.533Z,26.60
2018-08-23T15:26:19.094Z,26.30
2018-08-23T15:28:46.391Z,26.00
2018-08-23T15:31:13.811Z,25.90
2018-08-23T15:33:41.204Z,25.80
2018-08-23T15:36:08.613Z,25.80
2018-08-23T15:38:36.025Z,25.70
2018-08-23T15:41:03.554Z,25.60
2018-08-23T15:43:30.893Z,25.40
2018-08-23T15:45:58.388Z,25.40
2018-08-23T15:48:25.782Z,25.30
2018-08-23T15:50:53.176Z,25.20
2018-08-23T15:53:20.591Z,25.00
2018-08-23T15:55:48.053Z,24.90
2018-08-23T15:58:15.444Z,24.80
2018-08-23T16:00:42.836Z,24.70
2018-08-23T16:03:10.322Z,24.90
2018-08-23T16:05:38.212Z,24.80
2018-08-23T16:08:06.192Z,24.80
2018-08-23T16:10:33.595Z,24.70
2018-08-23T16:13:01.018Z,24.70
2018-08-23T16:15:28.800Z,24.60
2018-08-23T16:18:01.989Z,24.50
2018-08-23T16:20:35.237Z,24.30
2018-08-23T16:23:02.781Z,24.20
2018-08-23T16:25:34.817Z,24.20
2018-08-23T16:28:02.201Z,24.10
2018-08-23T16:30:29.568Z,24.20
2018-08-23T16:32:57.005Z,24.40
2018-08-23T16:35:24.394Z,24.30
2018-08-23T16:37:51.833Z,24.30
2018-08-23T16:40:25.025Z,24.30
2018-08-23T16:42:52.393Z,24.20
2018-08-23T16:45:19.778Z,24.10
2018-08-23T16:47:47.214Z,23.90
2018-08-23T16:50:14.666Z,23.80
2018-08-23T16:52:42.135Z,23.70
2018-08-23T16:55:09.553Z,23.70
2018-08-23T16:57:37.033Z,23.60
2018-08-23T17:00:04.756Z,23.30
2018-08-23T17:02:32.128Z,23.30
2018-08-23T17:04:59.505Z,23.30
2018-08-23T17:07:26.929Z,23.10
2018-08-23T17:09:54.320Z,23.00
2018-08-23T17:12:21.729Z,23.00
2018-08-23T17:14:49.172Z,22.90
2018-08-23T17:17:22.429Z,22.80
2018-08-23T17:19:49.823Z,22.70
2018-08-23T17:22:17.261Z,22.70
2018-08-23T17:24:44.734Z,22.70
2018-08-23T17:27:12.104Z,22.60
2018-08-23T17:29:39.564Z,22.50
2018-08-23T17:32:07.206Z,22.60
2018-08-23T17:34:34.629Z,22.50
2018-08-23T17:37:02.140Z,22.20
2018-08-23T17:39:29.586Z,22.20
2018-08-23T17:41:57.109Z,22.00
2018-08-23T17:44:24.546Z,21.90
2018-08-23T17:46:52.010Z,21.90
2018-08-23T17:49:19.423Z,21.80
2018-08-23T17:51:46.963Z,21.70
2018-08-23T17:54:14.378Z,21.50
2018-08-23T17:56:41.790Z,21.40
2018-08-23T17:59:09.230Z,21.30
2018-08-23T18:01:36.657Z,21.20
2018-08-23T18:04:04.349Z,21.10
2018-08-23T18:06:31.864Z,21.00
2018-08-23T18:08:59.358Z,20.90
2018-08-23T18:11:26.848Z,20.70
2018-08-23T18:13:54.331Z,20.60
2018-08-23T18:16:27.356Z,20.60
2018-08-23T18:18:54.757Z,20.50
2018-08-23T18:21:22.167Z,20.40
2018-08-23T18:23:49.596Z,20.50
2018-08-23T18:26:17.028Z,20.30
2018-08-23T18:28:44.500Z,20.00
2018-08-23T18:31:11.962Z,19.60
2018-08-23T18:33:39.373Z,19.60
2018-08-23T18:36:06.788Z,19.60
2018-08-23T18:38:34.199Z,19.60
2018-08-23T18:41:01.629Z,19.50
2018-08-23T18:43:29.050Z,19.30
2018-08-23T18:45:56.430Z,19.10
2018-08-23T18:48:23.865Z,18.90
2018-08-23T18:50:51.241Z,18.80
2018-08-23T18:53:18.941Z,18.80
2018-08-23T18:55:46.360Z,18.90
2018-08-23T18:58:13.810Z,19.00
2018-08-23T19:00:41.205Z,18.90
2018-08-23T19:03:08.641Z,18.80
2018-08-23T19:05:36.152Z,18.50
2018-08-23T19:08:03.562Z,18.40
2018-08-23T19:10:30.993Z,18.30
2018-08-23T19:12:58.409Z,18.10
2018-08-23T19:15:31.441Z,18.00
2018-08-23T19:17:58.880Z,17.90
2018-08-23T19:20:26.290Z,17.80
2018-08-23T19:22:54.010Z,17.80
2018-08-23T19:25:21.399Z,17.70
2018-08-23T19:27:48.785Z,17.50
2018-08-23T19:30:16.244Z,17.40
2018-08-23T19:32:43.620Z,17.30
2018-08-23T19:35:11.011Z,17.20
2018-08-23T19:37:38.468Z,17.10
2018-08-23T19:40:05.865Z,17.00
2018-08-23T19:42:33.319Z,16.90
2018-08-23T19:45:01.651Z,16.70
2018-08-23T19:47:34.741Z,16.70
2018-08-23T19:50:03.501Z,16.70
2018-08-23T19:52:30.914Z,16.70
2018-08-23T19:54:58.348Z,16.60
2018-08-23T19:57:25.820Z,16.40
2018-08-23T19:59:53.297Z,16.30
2018-08-23T20:02:20.732Z,16.20
2018-08-23T20:04:48.140Z,16.00
2018-08-23T20:07:15.839Z,15.90
2018-08-23T20:09:43.306Z,15.90
2018-08-23T20:12:11.593Z,15.80
2018-08-23T20:14:39.154Z,15.80
2018-08-23T20:17:06.674Z,15.70
2018-08-23T20:19:34.142Z,15.60
2018-08-23T20:22:01.653Z,15.60
2018-08-23T20:24:29.059Z,15.60
2018-08-23T20:26:57.229Z,15.50
2018-08-23T20:29:24.685Z,15.40
2018-08-23T20:31:52.399Z,15.20
2018-08-23T20:34:19.844Z,15.20
2018-08-23T20:36:47.240Z,15.20
2018-08-23T20:39:14.931Z,15.30
2018-08-23T20:41:43.775Z,15.20
2018-08-23T20:44:11.149Z,15.30
2018-08-23T20:46:39.209Z,15.30
2018-08-23T20:49:06.674Z,15.10
2018-08-23T20:51:34.091Z,15.00
2018-08-23T20:54:01.521Z,15.00
2018-08-23T20:56:29.273Z,15.00
2018-08-23T20:58:56.907Z,15.00
2018-08-23T21:01:24.309Z,15.10
2018-08-23T21:03:51.947Z,15.20
2018-08-23T21:06:19.320Z,15.20
2018-08-23T21:08:46.720Z,15.20
2018-08-23T21:11:14.145Z,15.10
2018-08-23T21:13:41.613Z,15.00
2018-08-23T21:16:09.099Z,15.00
2018-08-23T21:18:36.617Z,14.90
2018-08-23T21:21:04.236Z,14.90
2018-08-23T21:23:31.925Z,14.70
2018-08-23T21:25:59.385Z,14.60
2018-08-23T21:28:26.797Z,14.60
2018-08-23T21:30:54.205Z,14.50
2018-08-23T21:33:21.620Z,14.40
2018-08-23T21:35:49.037Z,14.20
2018-08-23T21:38:16.453Z,14.10
2018-08-23T21:40:43.857Z,14.10
2018-08-23T21:43:11.245Z,14.00
2018-08-23T21:45:38.695Z,13.90
2018-08-23T21:48:06.564Z,13.70
2018-08-23T21:50:34.000Z,13.70
2018-08-23T21:53:01.410Z,13.60
2018-08-23T21:55:34.631Z,13.60
2018-08-23T21:58:02.070Z,13.50
2018-08-23T22:00:34.194Z,13.30
2018-08-23T22:03:01.645Z,13.20
2018-08-23T22:05:29.034Z,13.20
2018-08-23T22:07:56.493Z,13.20
2018-08-23T22:10:23.895Z,13.20
2018-08-23T22:12:51.320Z,13.20
2018-08-23T22:15:18.817Z,13.20
2018-08-23T22:17:46.168Z,13.10
2018-08-23T22:20:13.623Z,12.90
2018-08-23T22:22:41.037Z,12.80
2018-08-23T22:25:08.441Z,12.80
2018-08-23T22:27:35.871Z,12.70
2018-08-23T22:30:03.393Z,12.70
2018-08-23T22:32:30.772Z,12.70
2018-08-23T22:34:58.173Z,12.60
2018-08-23T22:37:25.614Z,12.50
2018-08-23T22:39:52.992Z,12.40
2018-08-23T22:42:20.444Z,12.40
2018-08-23T22:44:47.875Z,12.30
2018-08-23T22:47:15.292Z,12.30
2018-08-23T22:49:42.693Z,12.30
2018-08-23T22:52:10.104Z,12.20
2018-08-23T22:54:37.568Z,12.10
2018-08-23T22:57:04.986Z,12.10
2018-08-23T22:59:32.413Z,12.10
2018-08-23T23:01:59.801Z,12.10
2018-08-23T23:04:27.853Z,12.10
2018-08-23T23:06:56.073Z,12.00
2018-08-23T23:09:23.465Z,11.90
2018-08-23T23:11:50.885Z,11.90
2018-08-23T23:14:18.349Z,11.80
2018-08-23T23:16:45.747Z,11.80
2018-08-23T23:19:13.186Z,11.80
2018-08-23T23:21:40.572Z,11.80
2018-08-23T23:24:13.869Z,11.80
2018-08-23T23:26:41.298Z,11.70
2018-08-23T23:29:08.728Z,11.70
2018-08-23T23:31:36.121Z,11.70
2018-08-23T23:34:03.582Z,11.70
2018-08-23T23:36:31.001Z,11.60
2018-08-23T23:38:58.433Z,11.60
2018-08-23T23:41:25.845Z,11.50
2018-08-23T23:43:53.281Z,11.40
2018-08-23T23:46:20.708Z,11.40
2018-08-23T23:48:48.086Z,11.30
2018-08-23T23:51:15.535Z,11.30
2018-08-23T23:53:42.900Z,11.30
2018-08-23T23:56:10.294Z,11.40
2018-08-23T23:58:37.761Z,11.40
